EXS51FG EGNM-LGKO
Flight info
| Callsign | EXS51FG |
|---|---|
| Flight time | N/A |
| Altitude | 37000 |
| Route | LAMIX L603 DOLAS DCT NAVPI DCT DODEN DCT NEGIX DCT DINKU DCT BESNI DCT LATLO DCT OBEDI DCT MAGAM DCT TEBLI DCT GORAV DCT MEDUX UM867 KOGAT DCT ERANA UL737 TSL UN130 ESOPO DCT MES UN139 LURUS L995 KOPAR |
| Aircraft | B738/M-SDFGHIJ3J4J7M3RWXY/LB1 |
Departure
| Time | 2026-05-05 15:57 |
|---|---|
| Airport | Leeds Bradford Airport (EGNM) |
Arrival
| Time | N/A |
|---|---|
| Airport | Kos International Airport "Ippokratis" (LGKO) |
| Time | Latitude | Longitude | Altitude | Speed | Heading |
|---|---|---|---|---|---|
| 2026-05-05 15:42 | 53.86878 | -1.65690 | 664 ft | 0 kts | 1° |
| 2026-05-05 15:49 | 53.86862 | -1.65690 | 664 ft | 4 kts | 1° |
| 2026-05-05 15:49 | 53.86841 | -1.65691 | 664 ft | 4 kts | 4° |
| 2026-05-05 15:49 | 53.86820 | -1.65702 | 661 ft | 4 kts | 66° |
| 2026-05-05 15:50 | 53.86817 | -1.65740 | 663 ft | 4 kts | 84° |
| 2026-05-05 15:50 | 53.86812 | -1.65785 | 662 ft | 4 kts | 83° |
| 2026-05-05 15:50 | 53.86812 | -1.65820 | 661 ft | 4 kts | 91° |
| 2026-05-05 15:50 | 53.86812 | -1.65856 | 663 ft | 1 kts | 91° |
| 2026-05-05 15:52 | 53.86812 | -1.65855 | 663 ft | 1 kts | 91° |
| 2026-05-05 15:53 | 53.86812 | -1.65796 | 663 ft | 7 kts | 95° |
| 2026-05-05 15:53 | 53.86775 | -1.65752 | 665 ft | 7 kts | 163° |
| 2026-05-05 15:53 | 53.86742 | -1.65666 | 664 ft | 11 kts | 101° |
| 2026-05-05 15:53 | 53.86738 | -1.65540 | 663 ft | 11 kts | 91° |
| 2026-05-05 15:54 | 53.86712 | -1.65426 | 659 ft | 12 kts | 157° |
| 2026-05-05 15:54 | 53.86622 | -1.65428 | 662 ft | 17 kts | 183° |
| 2026-05-05 15:54 | 53.86490 | -1.65439 | 668 ft | 19 kts | 183° |
| 2026-05-05 15:54 | 53.86358 | -1.65453 | 677 ft | 19 kts | 183° |
| 2026-05-05 15:55 | 53.86229 | -1.65459 | 679 ft | 18 kts | 170° |
| 2026-05-05 15:55 | 53.86128 | -1.65340 | 679 ft | 18 kts | 138° |
| 2026-05-05 15:55 | 53.86033 | -1.65195 | 674 ft | 19 kts | 137° |
| 2026-05-05 15:55 | 53.85938 | -1.65049 | 667 ft | 15 kts | 135° |
| 2026-05-05 15:56 | 53.85890 | -1.64914 | 663 ft | 10 kts | 158° |
| 2026-05-05 15:56 | 53.85873 | -1.64949 | 663 ft | 4 kts | 290° |
| 2026-05-05 15:56 | 53.85911 | -1.65012 | 663 ft | 18 kts | 317° |
| 2026-05-05 15:56 | 53.86185 | -1.65433 | 679 ft | 88 kts | 318° |
| 2026-05-05 15:57 | 53.86806 | -1.66387 | 670 ft | 150 kts | 319° |
| 2026-05-05 15:57 | 53.87559 | -1.67573 | 1229 ft | 156 kts | 320° |
| 2026-05-05 15:57 | 53.88300 | -1.68957 | 2038 ft | 163 kts | 315° |
| 2026-05-05 15:57 | 53.89062 | -1.70509 | 2558 ft | 183 kts | 313° |
| 2026-05-05 15:58 | 53.89704 | -1.71892 | 3066 ft | 194 kts | 306° |
| 2026-05-05 15:58 | 53.90137 | -1.73687 | 3643 ft | 206 kts | 281° |
| 2026-05-05 15:58 | 53.89996 | -1.76181 | 4139 ft | 221 kts | 257° |
| 2026-05-05 15:58 | 53.89399 | -1.78681 | 4563 ft | 242 kts | 234° |
| 2026-05-05 15:59 | 53.88095 | -1.80467 | 5372 ft | 241 kts | 201° |
| 2026-05-05 15:59 | 53.86459 | -1.80948 | 6261 ft | 243 kts | 181° |
| 2026-05-05 15:59 | 53.84726 | -1.80989 | 6763 ft | 260 kts | 180° |
| 2026-05-05 15:59 | 53.82847 | -1.81001 | 7257 ft | 275 kts | 180° |
| 2026-05-05 16:00 | 53.80906 | -1.80989 | 7964 ft | 282 kts | 180° |
| 2026-05-05 16:00 | 53.78959 | -1.80949 | 8775 ft | 285 kts | 180° |
| 2026-05-05 16:00 | 53.76945 | -1.80866 | 9518 ft | 294 kts | 180° |
| 2026-05-05 16:00 | 53.74882 | -1.80740 | 10291 ft | 298 kts | 180° |
| 2026-05-05 16:01 | 53.72741 | -1.80609 | 10604 ft | 320 kts | 180° |
| 2026-05-05 16:01 | 53.70437 | -1.80483 | 10867 ft | 340 kts | 180° |
| 2026-05-05 16:01 | 53.68047 | -1.80323 | 11497 ft | 347 kts | 175° |
| 2026-05-05 16:01 | 53.65723 | -1.79139 | 12257 ft | 353 kts | 153° |
| 2026-05-05 16:02 | 53.63786 | -1.76640 | 13035 ft | 358 kts | 133° |
| 2026-05-05 16:02 | 53.62429 | -1.73157 | 13794 ft | 362 kts | 114° |
| 2026-05-05 16:02 | 53.61477 | -1.69186 | 14436 ft | 367 kts | 111° |
| 2026-05-05 16:02 | 53.60585 | -1.65118 | 15069 ft | 372 kts | 110° |
| 2026-05-05 16:03 | 53.59715 | -1.61052 | 15714 ft | 375 kts | 110° |
| 2026-05-05 16:03 | 53.58820 | -1.56882 | 16366 ft | 379 kts | 110° |
| 2026-05-05 16:03 | 53.57907 | -1.52672 | 16984 ft | 384 kts | 111° |
| 2026-05-05 16:03 | 53.56975 | -1.48425 | 17606 ft | 388 kts | 111° |
| 2026-05-05 16:04 | 53.56036 | -1.44194 | 18229 ft | 392 kts | 112° |
| 2026-05-05 16:04 | 53.55070 | -1.39872 | 18787 ft | 396 kts | 112° |
| 2026-05-05 16:04 | 53.54089 | -1.35510 | 19348 ft | 399 kts | 112° |
| 2026-05-05 16:04 | 53.53099 | -1.31121 | 19885 ft | 402 kts | 112° |
| 2026-05-05 16:05 | 53.52109 | -1.26748 | 20420 ft | 406 kts | 112° |
| 2026-05-05 16:05 | 53.51100 | -1.22300 | 20973 ft | 409 kts | 113° |
| 2026-05-05 16:05 | 53.50082 | -1.17820 | 21492 ft | 412 kts | 113° |
| 2026-05-05 16:05 | 53.49052 | -1.13298 | 22023 ft | 415 kts | 113° |
| 2026-05-05 16:06 | 53.48013 | -1.08749 | 22531 ft | 419 kts | 113° |
| 2026-05-05 16:06 | 53.46973 | -1.04206 | 23035 ft | 422 kts | 114° |
| 2026-05-05 16:06 | 53.46261 | -1.01099 | 23370 ft | 424 kts | 114° |
| 2026-05-05 16:06 | 53.44850 | -0.94952 | 23953 ft | 428 kts | 114° |
| 2026-05-05 16:07 | 53.44137 | -0.91853 | 24255 ft | 429 kts | 114° |
| 2026-05-05 16:07 | 53.43060 | -0.87182 | 24714 ft | 430 kts | 114° |
| 2026-05-05 16:07 | 53.41976 | -0.82488 | 25177 ft | 431 kts | 113° |
| 2026-05-05 16:07 | 53.40887 | -0.77784 | 25610 ft | 433 kts | 113° |
| 2026-05-05 16:08 | 53.39793 | -0.73071 | 26029 ft | 435 kts | 113° |
| 2026-05-05 16:08 | 53.38693 | -0.68345 | 26441 ft | 436 kts | 113° |
| 2026-05-05 16:08 | 53.37596 | -0.63638 | 26848 ft | 438 kts | 113° |
| 2026-05-05 16:08 | 53.36478 | -0.58854 | 27249 ft | 440 kts | 113° |
| 2026-05-05 16:09 | 53.35357 | -0.54065 | 27642 ft | 441 kts | 113° |
| 2026-05-05 16:09 | 53.34232 | -0.49272 | 28019 ft | 443 kts | 113° |
| 2026-05-05 16:09 | 53.33099 | -0.44455 | 28387 ft | 445 kts | 113° |
| 2026-05-05 16:09 | 53.31975 | -0.39687 | 28737 ft | 447 kts | 113° |
| 2026-05-05 16:10 | 53.30830 | -0.34841 | 29078 ft | 449 kts | 113° |
| 2026-05-05 16:10 | 53.29677 | -0.29974 | 29437 ft | 451 kts | 113° |
| 2026-05-05 16:10 | 53.28517 | -0.25086 | 29791 ft | 452 kts | 113° |
| 2026-05-05 16:10 | 53.27350 | -0.20181 | 30100 ft | 454 kts | 113° |
| 2026-05-05 16:11 | 53.26178 | -0.15263 | 30338 ft | 456 kts | 113° |
| 2026-05-05 16:11 | 53.22653 | -0.00542 | 31344 ft | 455 kts | 114° |
| 2026-05-05 16:12 | 53.21475 | 0.04355 | 31652 ft | 455 kts | 114° |
| 2026-05-05 16:12 | 53.19106 | 0.14168 | 32272 ft | 455 kts | 114° |
| 2026-05-05 16:13 | 53.15561 | 0.28772 | 33347 ft | 451 kts | 114° |
| 2026-05-05 16:13 | 53.14394 | 0.33559 | 33632 ft | 451 kts | 114° |
| 2026-05-05 16:13 | 53.13208 | 0.38409 | 33929 ft | 451 kts | 114° |
| 2026-05-05 16:14 | 53.10840 | 0.48064 | 34445 ft | 450 kts | 113° |
| 2026-05-05 16:14 | 53.08473 | 0.57677 | 34785 ft | 453 kts | 114° |
| 2026-05-05 16:15 | 53.06073 | 0.67380 | 35241 ft | 452 kts | 114° |
| 2026-05-05 16:15 | 53.03663 | 0.77058 | 35667 ft | 453 kts | 114° |
| 2026-05-05 16:16 | 53.01259 | 0.86692 | 36065 ft | 453 kts | 114° |
| 2026-05-05 16:16 | 52.98841 | 0.96358 | 36413 ft | 454 kts | 114° |
| 2026-05-05 16:17 | 52.96450 | 1.06151 | 36553 ft | 461 kts | 113° |
| 2026-05-05 16:17 | 52.95321 | 1.11151 | 36670 ft | 462 kts | 112° |
| 2026-05-05 16:18 | 52.93098 | 1.21173 | 36960 ft | 464 kts | 112° |
| 2026-05-05 16:18 | 52.91974 | 1.26199 | 36974 ft | 465 kts | 112° |
| 2026-05-05 16:19 | 52.88588 | 1.41114 | 36973 ft | 459 kts | 113° |
| 2026-05-05 16:19 | 52.85192 | 1.55874 | 36958 ft | 455 kts | 113° |
| 2026-05-05 16:20 | 52.80646 | 1.75463 | 36976 ft | 462 kts | 113° |
| 2026-05-05 16:22 | 52.74793 | 2.00449 | 36955 ft | 469 kts | 114° |
| 2026-05-05 16:23 | 52.70052 | 2.20476 | 36956 ft | 468 kts | 114° |
| 2026-05-05 16:23 | 52.66481 | 2.35442 | 36958 ft | 465 kts | 114° |
| 2026-05-05 16:24 | 52.64119 | 2.45280 | 36954 ft | 463 kts | 114° |
| 2026-05-05 16:25 | 52.60561 | 2.60022 | 36955 ft | 460 kts | 114° |
| 2026-05-05 16:25 | 52.57001 | 2.74678 | 36955 ft | 458 kts | 114° |
| 2026-05-05 16:26 | 52.51715 | 2.93564 | 36953 ft | 453 kts | 122° |
| 2026-05-05 16:27 | 52.48618 | 3.02531 | 36947 ft | 453 kts | 122° |
| 2026-05-05 16:27 | 52.45513 | 3.11561 | 36953 ft | 453 kts | 122° |
| 2026-05-05 16:28 | 52.42452 | 3.20566 | 36950 ft | 453 kts | 122° |
| 2026-05-05 16:28 | 52.39388 | 3.29608 | 36952 ft | 453 kts | 122° |
| 2026-05-05 16:29 | 52.36321 | 3.38636 | 36946 ft | 453 kts | 122° |
| 2026-05-05 16:29 | 52.33269 | 3.47589 | 36930 ft | 453 kts | 122° |
| 2026-05-05 16:30 | 52.30192 | 3.56579 | 36930 ft | 452 kts | 122° |
| 2026-05-05 16:30 | 52.27110 | 3.65548 | 36935 ft | 452 kts | 122° |
| 2026-05-05 16:31 | 52.24016 | 3.74520 | 36930 ft | 452 kts | 122° |
| 2026-05-05 16:31 | 52.20946 | 3.83391 | 36914 ft | 451 kts | 122° |
| 2026-05-05 16:32 | 52.17843 | 3.92325 | 36913 ft | 451 kts | 123° |
| 2026-05-05 16:32 | 52.14743 | 4.01220 | 36905 ft | 451 kts | 122° |
| 2026-05-05 16:33 | 52.11655 | 4.10050 | 36898 ft | 450 kts | 122° |
| 2026-05-05 16:33 | 52.08545 | 4.18910 | 36902 ft | 450 kts | 123° |
| 2026-05-05 16:34 | 52.05429 | 4.27754 | 36907 ft | 450 kts | 123° |
| 2026-05-05 16:34 | 52.02309 | 4.36583 | 36910 ft | 450 kts | 123° |
| 2026-05-05 16:35 | 51.99193 | 4.45367 | 36903 ft | 450 kts | 123° |
| 2026-05-05 16:35 | 51.96061 | 4.54165 | 36902 ft | 451 kts | 123° |
| 2026-05-05 16:36 | 51.92915 | 4.62970 | 36915 ft | 450 kts | 123° |
| 2026-05-05 16:36 | 51.89763 | 4.71764 | 36886 ft | 451 kts | 123° |
| 2026-05-05 16:37 | 51.86613 | 4.80521 | 36892 ft | 451 kts | 123° |
| 2026-05-05 16:37 | 51.83469 | 4.89230 | 36880 ft | 451 kts | 123° |
| 2026-05-05 16:38 | 51.80296 | 4.97991 | 36885 ft | 450 kts | 123° |
| 2026-05-05 16:38 | 51.77138 | 5.06680 | 36887 ft | 450 kts | 123° |
| 2026-05-05 16:39 | 51.73951 | 5.15419 | 36882 ft | 450 kts | 123° |
| 2026-05-05 16:39 | 51.70759 | 5.24141 | 36882 ft | 450 kts | 123° |
| 2026-05-05 16:40 | 51.67589 | 5.32775 | 36870 ft | 449 kts | 124° |
| 2026-05-05 16:40 | 51.64399 | 5.41434 | 36878 ft | 448 kts | 124° |
| 2026-05-05 16:41 | 51.61227 | 5.50014 | 36882 ft | 447 kts | 124° |
| 2026-05-05 16:41 | 51.58033 | 5.58622 | 36877 ft | 447 kts | 124° |
| 2026-05-05 16:42 | 51.54842 | 5.67196 | 36883 ft | 446 kts | 124° |
| 2026-05-05 16:42 | 51.51670 | 5.75690 | 36882 ft | 445 kts | 124° |
| 2026-05-05 16:43 | 51.48657 | 5.83730 | 36872 ft | 444 kts | 124° |
| 2026-05-05 16:43 | 51.45469 | 5.92214 | 36872 ft | 443 kts | 124° |
| 2026-05-05 16:44 | 51.42295 | 6.00629 | 36878 ft | 442 kts | 125° |
| 2026-05-05 16:44 | 51.39101 | 6.09069 | 36878 ft | 442 kts | 124° |
| 2026-05-05 16:45 | 51.35909 | 6.17477 | 36869 ft | 442 kts | 124° |
| 2026-05-05 16:45 | 51.32727 | 6.25834 | 36849 ft | 441 kts | 125° |
| 2026-05-05 16:46 | 51.29525 | 6.34213 | 36861 ft | 441 kts | 125° |
| 2026-05-05 16:46 | 51.26318 | 6.42580 | 36851 ft | 441 kts | 125° |
| 2026-05-05 16:47 | 51.23125 | 6.50881 | 36859 ft | 440 kts | 125° |
| 2026-05-05 16:47 | 51.19908 | 6.59220 | 36855 ft | 440 kts | 125° |
| 2026-05-05 16:48 | 51.16696 | 6.67518 | 36843 ft | 439 kts | 125° |
| 2026-05-05 16:48 | 51.14019 | 6.74412 | 36852 ft | 439 kts | 125° |
| 2026-05-05 16:49 | 51.10802 | 6.82675 | 36854 ft | 438 kts | 125° |
| 2026-05-05 16:49 | 51.07603 | 6.90865 | 36849 ft | 437 kts | 125° |
| 2026-05-05 16:50 | 51.04389 | 6.99067 | 36835 ft | 437 kts | 125° |
| 2026-05-05 16:50 | 51.01184 | 7.07219 | 36834 ft | 436 kts | 125° |
| 2026-05-05 16:51 | 50.97956 | 7.15405 | 36818 ft | 438 kts | 126° |
| 2026-05-05 16:51 | 50.94718 | 7.23590 | 36827 ft | 438 kts | 126° |
| 2026-05-05 16:52 | 50.91473 | 7.31767 | 36833 ft | 438 kts | 126° |
| 2026-05-05 16:52 | 50.88239 | 7.39892 | 36824 ft | 438 kts | 126° |
| 2026-05-05 16:53 | 50.84981 | 7.48051 | 36825 ft | 438 kts | 126° |
| 2026-05-05 16:53 | 50.81710 | 7.56218 | 36805 ft | 439 kts | 126° |
| 2026-05-05 16:54 | 50.78434 | 7.64370 | 36817 ft | 439 kts | 126° |
| 2026-05-05 16:54 | 50.75165 | 7.72481 | 36823 ft | 440 kts | 126° |
| 2026-05-05 16:55 | 50.71865 | 7.80641 | 36824 ft | 441 kts | 126° |
| 2026-05-05 16:55 | 50.68556 | 7.88800 | 36830 ft | 441 kts | 126° |
| 2026-05-05 16:56 | 50.65255 | 7.96917 | 36811 ft | 441 kts | 126° |
| 2026-05-05 16:56 | 50.61957 | 8.05003 | 36803 ft | 441 kts | 127° |
| 2026-05-05 16:57 | 50.58709 | 8.12524 | 36808 ft | 439 kts | 131° |
| 2026-05-05 16:57 | 50.54885 | 8.19982 | 36812 ft | 438 kts | 133° |
| 2026-05-05 16:58 | 50.51024 | 8.27395 | 36810 ft | 437 kts | 132° |
| 2026-05-05 16:58 | 50.47198 | 8.34850 | 36816 ft | 437 kts | 132° |
| 2026-05-05 16:59 | 50.43415 | 8.42253 | 36802 ft | 436 kts | 132° |
| 2026-05-05 16:59 | 50.39613 | 8.49672 | 36809 ft | 436 kts | 132° |
| 2026-05-05 17:00 | 50.35706 | 8.56911 | 36820 ft | 434 kts | 136° |
| 2026-05-05 17:00 | 50.31573 | 8.63802 | 36823 ft | 433 kts | 136° |
| 2026-05-05 17:01 | 50.27447 | 8.70589 | 36826 ft | 433 kts | 136° |
| 2026-05-05 17:01 | 50.23302 | 8.77451 | 36823 ft | 433 kts | 136° |
| 2026-05-05 17:02 | 50.19178 | 8.84300 | 36825 ft | 433 kts | 136° |
| 2026-05-05 17:02 | 50.15071 | 8.91113 | 36824 ft | 433 kts | 136° |
| 2026-05-05 17:03 | 50.10935 | 8.97958 | 36822 ft | 432 kts | 136° |
| 2026-05-05 17:03 | 50.06804 | 9.04773 | 36822 ft | 432 kts | 136° |
| 2026-05-05 17:04 | 50.02688 | 9.11547 | 36825 ft | 433 kts | 136° |
| 2026-05-05 17:04 | 49.98546 | 9.18343 | 36814 ft | 433 kts | 136° |
| 2026-05-05 17:05 | 49.94397 | 9.25132 | 36822 ft | 433 kts | 136° |
| 2026-05-05 17:05 | 49.90233 | 9.31929 | 36824 ft | 434 kts | 136° |
| 2026-05-05 17:06 | 49.86090 | 9.38674 | 36820 ft | 434 kts | 136° |
| 2026-05-05 17:06 | 49.81908 | 9.45464 | 36818 ft | 434 kts | 136° |
| 2026-05-05 17:07 | 49.77747 | 9.52201 | 36819 ft | 435 kts | 136° |
| 2026-05-05 17:07 | 49.73555 | 9.58972 | 36812 ft | 435 kts | 137° |
| 2026-05-05 17:08 | 49.69370 | 9.65712 | 36834 ft | 434 kts | 137° |
| 2026-05-05 17:08 | 49.65180 | 9.72443 | 36820 ft | 435 kts | 137° |
| 2026-05-05 17:09 | 49.61003 | 9.79135 | 36835 ft | 435 kts | 137° |
| 2026-05-05 17:09 | 49.56793 | 9.85863 | 36825 ft | 435 kts | 137° |
| 2026-05-05 17:10 | 49.52583 | 9.92572 | 36806 ft | 435 kts | 137° |
| 2026-05-05 17:10 | 49.48391 | 9.99236 | 36828 ft | 435 kts | 137° |
| 2026-05-05 17:11 | 49.44167 | 10.05932 | 36830 ft | 436 kts | 137° |
| 2026-05-05 17:11 | 49.39937 | 10.12622 | 36834 ft | 436 kts | 137° |
| 2026-05-05 17:12 | 49.35696 | 10.19310 | 36833 ft | 437 kts | 137° |
| 2026-05-05 17:12 | 49.31459 | 10.25975 | 36834 ft | 438 kts | 137° |
| 2026-05-05 17:13 | 49.27201 | 10.32661 | 36824 ft | 438 kts | 138° |
| 2026-05-05 17:13 | 49.22924 | 10.39343 | 36842 ft | 438 kts | 139° |
| 2026-05-05 17:14 | 49.18575 | 10.45867 | 36861 ft | 438 kts | 140° |
| 2026-05-05 17:14 | 49.14210 | 10.52305 | 36863 ft | 438 kts | 140° |
| 2026-05-05 17:15 | 49.09821 | 10.58786 | 36875 ft | 439 kts | 139° |
| 2026-05-05 17:15 | 49.05424 | 10.65287 | 36838 ft | 439 kts | 140° |
| 2026-05-05 17:16 | 49.01064 | 10.71723 | 36868 ft | 439 kts | 140° |
| 2026-05-05 17:16 | 48.96661 | 10.78204 | 36845 ft | 440 kts | 140° |
| 2026-05-05 17:17 | 48.92244 | 10.84690 | 36841 ft | 440 kts | 140° |
| 2026-05-05 17:17 | 48.87819 | 10.91170 | 36838 ft | 440 kts | 140° |
| 2026-05-05 17:18 | 48.83415 | 10.97604 | 36811 ft | 440 kts | 140° |
| 2026-05-05 17:18 | 48.79023 | 11.04004 | 36803 ft | 440 kts | 140° |
| 2026-05-05 17:19 | 48.74608 | 11.10421 | 36805 ft | 440 kts | 141° |
| 2026-05-05 17:19 | 48.70172 | 11.16852 | 36806 ft | 440 kts | 141° |
| 2026-05-05 17:20 | 48.65742 | 11.23260 | 36796 ft | 441 kts | 141° |
| 2026-05-05 17:20 | 48.61464 | 11.29878 | 36813 ft | 442 kts | 137° |
| 2026-05-05 17:21 | 48.57335 | 11.36812 | 36797 ft | 443 kts | 136° |
| 2026-05-05 17:22 | 48.51151 | 11.47186 | 36818 ft | 444 kts | 137° |
| 2026-05-05 17:22 | 48.46979 | 11.54098 | 36804 ft | 445 kts | 137° |
| 2026-05-05 17:23 | 48.42809 | 11.60971 | 36811 ft | 447 kts | 137° |
| 2026-05-05 17:23 | 48.38610 | 11.67871 | 36808 ft | 449 kts | 137° |
| 2026-05-05 17:24 | 48.34379 | 11.74809 | 36798 ft | 450 kts | 137° |
| 2026-05-05 17:24 | 48.30120 | 11.81773 | 36806 ft | 452 kts | 137° |
| 2026-05-05 17:25 | 48.25856 | 11.88728 | 36803 ft | 453 kts | 137° |
| 2026-05-05 17:25 | 48.21600 | 11.95653 | 36801 ft | 453 kts | 137° |
| 2026-05-05 17:26 | 48.17310 | 12.02612 | 36803 ft | 454 kts | 137° |
| 2026-05-05 17:26 | 48.13046 | 12.09513 | 36793 ft | 453 kts | 137° |
| 2026-05-05 17:27 | 48.08751 | 12.16446 | 36796 ft | 453 kts | 137° |
| 2026-05-05 17:27 | 48.04461 | 12.23351 | 36789 ft | 453 kts | 137° |
| 2026-05-05 17:28 | 48.00164 | 12.30248 | 36792 ft | 453 kts | 137° |
| 2026-05-05 17:28 | 47.95894 | 12.37087 | 36779 ft | 453 kts | 137° |
| 2026-05-05 17:29 | 47.91590 | 12.43961 | 36784 ft | 452 kts | 137° |
| 2026-05-05 17:29 | 47.87281 | 12.50824 | 36784 ft | 452 kts | 137° |
| 2026-05-05 17:30 | 47.82992 | 12.57639 | 36786 ft | 452 kts | 137° |